EDT,Max TemperatureF,Mean TemperatureF,Min TemperatureF,Max Dew PointF,MeanDew PointF,Min DewpointF,Max Humidity, Mean Humidity, Min Humidity, Max Sea Level PressureIn, Mean Sea Level PressureIn, Min Sea Level PressureIn, Max VisibilityMiles, Mean VisibilityMiles, Min VisibilityMiles, Max Wind SpeedMPH, Mean Wind SpeedMPH, Max Gust SpeedMPH,PrecipitationIn, CloudCover, Events, WindDirDegrees
2013-9-1,85,77,68,70,68,65,97,79,61,29.87,29.83,29.80,10,10,10,15,8,18,0.00,2,Rain,206
2013-9-2,85,78,70,72,70,68,100,83,65,29.93,29.87,29.82,10,9,4,14,6,17,T,4,Thunderstorm,234
2013-9-3,80,70,59,67,60,55,90,69,48,30.06,29.98,29.88,10,10,10,14,7,17,0.00,1,,359
2013-9-4,80,67,54,60,57,53,93,71,48,30.16,30.12,30.06,10,10,10,9,2,12,0.00,0,Rain,57
2013-9-5,83,71,58,64,61,56,93,72,51,30.21,30.17,30.14,10,10,8,8,2,11,0.00,0,,295
2013-9-6,83,72,61,62,59,56,90,67,43,30.21,30.16,30.11,10,10,8,10,5,13,0.00,0,,45
2013-9-7,85,72,59,67,62,54,90,71,51,30.10,30.05,29.99,10,10,10,10,5,13,0.00,1,,193
2013-9-8,89,78,67,68,66,65,93,70,46,30.01,29.98,29.94,10,9,4,9,2,12,T,2,,206
2013-9-9,90,79,68,70,68,65,97,74,50,30.06,30.02,30.00,10,9,6,12,6,17,0.00,2,,176
2013-9-10,90,81,72,73,71,69,93,75,56,30.17,30.12,30.06,10,9,5,14,7,18,0.00,0,,195
2013-9-11,90,81,71,72,70,69,93,73,52,30.19,30.13,30.07,10,8,2,20,6,24,0.00,1,Thunderstorm,218
2013-9-12,84,75,66,72,68,62,93,78,62,30.05,29.99,29.90,10,8,1,20,7,25,0.14,2,Rain-Thunderstorm,261
2013-9-13,71,62,52,64,51,44,90,65,40,30.07,30.00,29.91,10,10,10,20,10,25,0.00,2,,356
2013-9-14,72,60,47,49,45,42,93,64,35,30.16,30.11,30.07,10,10,10,14,7,19,0.00,0,,51
2013-9-15,80,65,49,59,54,47,89,70,50,30.15,30.10,30.07,10,10,10,17,7,23,0.00,1,Rain,186
2013-9-16,73,66,59,61,60,55,90,78,66,30.25,30.18,30.08,10,10,7,14,6,17,0.04,7,Rain,62
2013-9-17,78,66,54,57,54,50,93,67,41,30.28,30.22,30.15,10,10,7,18,8,23,0.00,0,,76
2013-9-18,73,66,58,65,63,57,87,80,73,30.18,30.13,30.09,10,10,6,16,8,21,T,7,,177
2013-9-19,81,73,65,69,66,63,93,80,67,30.18,30.09,30.01,10,9,6,13,7,18,T,3,Rain,203
2013-9-20,86,77,67,67,65,64,93,71,48,30.02,29.93,29.82,10,10,7,18,9,23,0.03,1,Rain,190
2013-9-21,73,65,56,68,60,49,100,75,49,29.87,29.79,29.71,10,7,1,17,8,21,1.42,6,Rain,320
2013-9-22,70,60,49,51,48,46,93,70,47,30.00,29.94,29.87,10,10,10,14,7,17,0.00,0,,22
2013-9-23,73,61,49,50,48,46,86,64,41,30.09,30.04,29.99,10,10,10,14,9,18,0.00,0,,69
2013-9-24,81,67,53,61,55,49,83,66,48,30.06,29.98,29.90,10,10,10,12,5,16,0.00,3,,104
2013-9-25,79,71,63,63,60,55,87,70,52,29.91,29.87,29.84,10,10,10,15,6,19,0.00,5,,54
2013-9-26,80,66,52,61,55,50,93,68,43,30.06,29.99,29.91,10,8,0,9,3,12,0.00,2,Fog-Rain,36
2013-9-27,81,66,51,61,53,50,93,65,36,30.17,30.12,30.07,10,7,0,9,3,12,0.00,0,Fog,76
2013-9-28,81,67,53,59,56,51,93,68,42,30.19,30.13,30.09,10,10,9,9,5,13,0.00,1,Rain,169
2013-9-29,74,67,60,59,58,56,90,74,57,30.09,30.06,30.03,10,10,10,17,7,23,T,2,,211
2013-9-30,78,70,61,60,58,54,90,67,43,30.06,30.02,29.98,10,10,7,15,7,19,0.00,6,,182